SBOSBO GIG / SBGL
Speedbird OnlineSpeedbird Online GIG / SBGL

Rio Galeão – Tom Jobim International Airport
17:18 21°C

Location Rio De Janeiro, Brazil
Latitude: -22.8099994659
Longitude: -43.2505569458
Local Time 17:18 on 29 May 2024
UTC -3 hours (America/Sao_Paulo)
Currency £1 equals BRL 6.58
METAR SBGL 292000Z 22012KT 9999 BKN030 OVC040 21/14 Q1019
TAF TAF SBGL 291500Z 2918/3024 22015KT 9999 SCT023 TN17/3009Z TX24/3017Z BECMG 2921/2923 7000 SCT015 BKN025 PROB40 3000/3006 28010KT 5000 DZ BR BKN012 OVC025 BECMG 3007/3009 32005KT 9999 FEW017 BECMG 3012/3014 25010KT SCT015 BECMG 3018/3020 22014KT SCT023 BECMG 3022/3024 32005KT 8000 SCT016 RMK PGB
Weather As Of 29 May 2024 17:18
Description Overcast clouds
Wind 22 km/h from South-West (220°)
Cloud Cover 100%
Precipitation Rain: none, Snow: none
Sunrise 06:25
Sunset 17:16
NOTAM 32 active NOTAM
Rotations During the last 90 days there were
76 flights from EZE
75 flights from LHR
1 flights from GIG
84 flights to EZE
82 flights to LHR
1 flights to GIG
Lounges American Airlines Admirals Club, Terminal 2
Web Wikipedia
Codes IATA: GIG
ICAO: SBGL
Altitude 9 Meter / 28 Feet
Distance 9,283 KM / 5,768 Miles
from London.
Runways
RunwayLength (m)Surface
104000Concrete
153180Asphalt
284000Concrete
333180Asphalt
Radio
TypeDescriptionFrequency
APPRIO APP119.35
ATISATIS127.6
CLDCLNC DEL121
GNDGND121.65
OPSOPS122.5
TWRTWR118
Live ATC



Support Speedbird Online

© 2017-2024 Speedbird Online